createdAt,value
2018-05-24T00:00:15.690Z,21.98
2018-05-24T00:01:15.653Z,21.96
2018-05-24T00:02:15.681Z,21.95
2018-05-24T00:03:15.695Z,22
2018-05-24T00:04:15.470Z,22.04
2018-05-24T00:05:15.504Z,22.04
2018-05-24T00:06:15.533Z,21.99
2018-05-24T00:07:15.541Z,22
2018-05-24T00:08:15.824Z,21.96
2018-05-24T00:09:15.868Z,21.96
2018-05-24T00:10:15.599Z,21.99
2018-05-24T00:11:15.898Z,21.95
2018-05-24T00:12:15.662Z,21.95
2018-05-24T00:13:15.677Z,21.95
2018-05-24T00:14:15.981Z,21.89
2018-05-24T00:15:15.777Z,21.96
2018-05-24T00:16:16.023Z,21.93
2018-05-24T00:17:16.070Z,21.82
2018-05-24T00:18:16.063Z,21.88
2018-05-24T00:19:15.801Z,21.89
2018-05-24T00:20:16.102Z,21.91
2018-05-24T00:21:15.878Z,21.83
2018-05-24T00:22:16.170Z,21.79
2018-05-24T00:23:16.183Z,21.83
2018-05-24T00:24:16.209Z,21.85
2018-05-24T00:25:15.949Z,21.8
2018-05-24T00:26:16.252Z,21.8
2018-05-24T00:27:16.272Z,21.79
2018-05-24T00:28:15.760Z,21.83
2018-05-24T00:29:16.331Z,21.88
2018-05-24T00:30:16.332Z,21.8
2018-05-24T00:31:16.379Z,21.82
2018-05-24T00:32:15.851Z,21.85
2018-05-24T00:33:16.421Z,21.79
2018-05-24T00:34:16.189Z,21.77
2018-05-24T00:35:15.939Z,21.7
2018-05-24T00:36:16.510Z,21.75
2018-05-24T00:37:16.255Z,21.8
2018-05-24T00:38:16.540Z,21.77
2018-05-24T00:39:16.575Z,21.73
2018-05-24T00:40:16.593Z,21.67
2018-05-24T00:41:16.391Z,21.7
2018-05-24T00:42:16.634Z,21.69
2018-05-24T00:43:16.678Z,21.7
2018-05-24T00:44:16.707Z,21.72
2018-05-24T00:45:16.430Z,21.69
2018-05-24T00:46:16.793Z,21.7
2018-05-24T00:47:16.757Z,21.67
2018-05-24T00:48:16.795Z,21.69
2018-05-24T00:49:16.786Z,21.69
2018-05-24T00:50:16.555Z,21.7
2018-05-24T00:51:16.916Z,21.7
2018-05-24T00:52:16.873Z,21.64
2018-05-24T00:53:16.629Z,21.72
2018-05-24T00:54:16.899Z,21.7
2018-05-24T00:55:16.662Z,21.66
2018-05-24T00:56:17.005Z,21.61
2018-05-24T00:57:16.982Z,21.61
2018-05-24T00:58:17.008Z,21.64
2018-05-24T00:59:16.764Z,21.64
2018-05-24T01:00:17.044Z,21.61
2018-05-24T01:01:17.076Z,21.61
2018-05-24T01:02:17.102Z,21.6
2018-05-24T01:03:17.138Z,21.66
2018-05-24T01:04:17.147Z,21.55
2018-05-24T01:05:16.925Z,21.66
2018-05-24T01:06:17.203Z,21.61
2018-05-24T01:07:16.940Z,21.55
2018-05-24T01:08:16.976Z,21.61
2018-05-24T01:09:17.267Z,21.57
2018-05-24T01:10:17.749Z,21.55
2018-05-24T01:11:17.096Z,21.58
2018-05-24T01:12:17.063Z,21.58
2018-05-24T01:13:17.086Z,21.57
2018-05-24T01:14:17.383Z,21.57
2018-05-24T01:15:17.402Z,21.57
2018-05-24T01:16:17.495Z,21.55
2018-05-24T01:17:17.165Z,21.5
2018-05-24T01:18:17.217Z,21.55
2018-05-24T01:19:17.240Z,21.52
2018-05-24T01:20:17.256Z,21.55
2018-05-24T01:21:17.544Z,21.5
2018-05-24T01:22:17.594Z,21.54
2018-05-24T01:23:17.606Z,21.39
2018-05-24T01:24:17.612Z,21.5
2018-05-24T01:25:17.652Z,21.4
2018-05-24T01:26:17.681Z,21.39
2018-05-24T01:27:17.703Z,21.42
2018-05-24T01:28:17.417Z,21.39
2018-05-24T01:29:17.758Z,21.45
2018-05-24T01:30:17.768Z,21.46
2018-05-24T01:31:17.491Z,21.46
2018-05-24T01:32:17.807Z,21.48
2018-05-24T01:33:17.541Z,21.43
2018-05-24T01:34:17.850Z,21.39
2018-05-24T01:35:17.611Z,21.36
2018-05-24T01:36:17.955Z,21.33
2018-05-24T01:37:17.922Z,21.37
2018-05-24T01:38:17.955Z,21.3
2018-05-24T01:39:17.970Z,21.4
2018-05-24T01:40:17.728Z,21.36
2018-05-24T01:41:18.013Z,21.35
2018-05-24T01:42:17.749Z,21.36
2018-05-24T01:43:18.055Z,21.32
2018-05-24T01:44:18.072Z,21.4
2018-05-24T01:45:18.100Z,21.39
2018-05-24T01:46:17.863Z,21.4
2018-05-24T01:47:17.899Z,21.36
2018-05-24T01:48:17.918Z,21.42
2018-05-24T01:49:17.918Z,21.37
2018-05-24T01:50:17.949Z,21.35
2018-05-24T01:51:17.962Z,21.29
2018-05-24T01:52:18.265Z,21.27
2018-05-24T01:53:18.286Z,21.32
2018-05-24T01:54:17.780Z,21.35
2018-05-24T01:55:17.797Z,21.35
2018-05-24T01:56:18.345Z,21.35
2018-05-24T01:57:18.373Z,21.32
2018-05-24T01:58:18.437Z,21.3
2018-05-24T01:59:18.434Z,21.27
2018-05-24T02:00:18.356Z,21.3
2018-05-24T02:01:18.479Z,21.35
2018-05-24T02:02:18.473Z,21.29
2018-05-24T02:03:18.511Z,21.27
2018-05-24T02:04:18.553Z,21.22
2018-05-24T02:05:18.309Z,21.27
2018-05-24T02:06:18.599Z,21.29
2018-05-24T02:07:18.613Z,21.29
2018-05-24T02:08:18.642Z,21.3
2018-05-24T02:09:18.646Z,21.25
2018-05-24T02:10:18.688Z,21.24
2018-05-24T02:11:18.724Z,21.21
2018-05-24T02:12:18.464Z,21.24
2018-05-24T02:13:18.758Z,21.14
2018-05-24T02:14:18.509Z,21.22
2018-05-24T02:15:18.776Z,21.18
2018-05-24T02:16:18.292Z,21.18
2018-05-24T02:17:18.907Z,21.2
2018-05-24T02:18:18.863Z,21.2
2018-05-24T02:19:18.345Z,21.14
2018-05-24T02:20:18.643Z,21.21
2018-05-24T02:21:18.936Z,21.12
2018-05-24T02:22:18.689Z,21.09
2018-05-24T02:23:19.047Z,21.14
2018-05-24T02:24:18.992Z,21.09
2018-05-24T02:25:19.020Z,21.07
2018-05-24T02:26:19.046Z,21.06
2018-05-24T02:27:19.087Z,21.03
2018-05-24T02:28:19.114Z,21
2018-05-24T02:29:19.114Z,21.03
2018-05-24T02:30:18.874Z,21.05
2018-05-24T02:31:19.184Z,20.99
2018-05-24T02:32:18.701Z,21.05
2018-05-24T02:33:18.948Z,20.97
2018-05-24T02:34:19.228Z,20.99
2018-05-24T02:35:19.026Z,21
2018-05-24T02:36:19.286Z,20.95
2018-05-24T02:37:19.320Z,20.95
2018-05-24T02:38:19.357Z,20.9
2018-05-24T02:39:19.094Z,20.95
2018-05-24T02:40:19.118Z,20.96
2018-05-24T02:41:18.870Z,20.93
2018-05-24T02:42:19.422Z,20.95
2018-05-24T02:43:19.165Z,20.87
2018-05-24T02:44:19.463Z,20.87
2018-05-24T02:45:19.226Z,20.87
2018-05-24T02:46:19.496Z,20.82
2018-05-24T02:47:18.987Z,20.87
2018-05-24T02:48:19.277Z,20.82
2018-05-24T02:49:19.603Z,20.9
2018-05-24T02:50:19.333Z,20.81
2018-05-24T02:51:19.632Z,20.8
2018-05-24T02:52:19.652Z,20.8
2018-05-24T02:53:19.668Z,20.77
2018-05-24T02:54:19.698Z,20.77
2018-05-24T02:55:19.724Z,20.77
2018-05-24T02:56:19.659Z,20.8
2018-05-24T02:57:19.767Z,20.77
2018-05-24T02:58:19.810Z,20.77
2018-05-24T02:59:19.541Z,20.77
2018-05-24T03:00:19.834Z,20.77
2018-05-24T03:01:19.900Z,20.75
2018-05-24T03:02:19.920Z,20.66
2018-05-24T03:03:19.902Z,20.75
2018-05-24T03:04:19.912Z,20.74
2018-05-24T03:05:19.687Z,20.7
2018-05-24T03:06:19.985Z,20.77
2018-05-24T03:07:20.040Z,20.7
2018-05-24T03:08:19.996Z,20.59
2018-05-24T03:09:19.751Z,20.72
2018-05-24T03:10:19.803Z,20.59
2018-05-24T03:11:20.076Z,20.59
2018-05-24T03:12:19.851Z,20.56
2018-05-24T03:13:19.602Z,20.66
2018-05-24T03:14:19.892Z,20.6
2018-05-24T03:15:20.197Z,20.63
2018-05-24T03:16:20.203Z,20.6
2018-05-24T03:17:19.667Z,20.63
2018-05-24T03:18:19.956Z,20.63
2018-05-24T03:19:20.181Z,20.6
2018-05-24T03:20:20.967Z,20.67
2018-05-24T03:21:20.035Z,20.58
2018-05-24T03:22:20.325Z,20.65
2018-05-24T03:23:20.081Z,20.51
2018-05-24T03:24:20.108Z,20.63
2018-05-24T03:25:20.414Z,20.62
2018-05-24T03:26:20.140Z,20.58
2018-05-24T03:27:20.437Z,20.58
2018-05-24T03:28:20.208Z,20.55
2018-05-24T03:29:20.489Z,20.56
2018-05-24T03:30:20.502Z,20.65
2018-05-24T03:31:20.288Z,20.59
2018-05-24T03:32:20.557Z,20.52
2018-05-24T03:33:20.027Z,20.55
2018-05-24T03:34:20.596Z,20.56
2018-05-24T03:35:20.885Z,20.56
2018-05-24T03:36:20.623Z,20.51
2018-05-24T03:37:20.395Z,20.51
2018-05-24T03:38:20.688Z,20.56
2018-05-24T03:39:20.719Z,20.55
2018-05-24T03:40:20.761Z,20.52
2018-05-24T03:41:20.744Z,20.47
2018-05-24T03:42:20.799Z,20.5
2018-05-24T03:43:20.530Z,20.56
2018-05-24T03:44:20.827Z,20.48
2018-05-24T03:45:20.834Z,20.58
2018-05-24T03:46:20.869Z,20.51
2018-05-24T03:47:20.897Z,20.5
2018-05-24T03:48:20.907Z,20.62
2018-05-24T03:49:20.671Z,20.55
2018-05-24T03:50:20.938Z,20.52
2018-05-24T03:51:20.713Z,20.48
2018-05-24T03:52:20.841Z,20.48
2018-05-24T03:53:21.027Z,20.41
2018-05-24T03:54:21.033Z,20.47
2018-05-24T03:55:21.074Z,20.43
2018-05-24T03:56:21.101Z,20.44
2018-05-24T03:57:20.884Z,20.44
2018-05-24T03:58:21.129Z,20.47
2018-05-24T03:59:20.893Z,20.55
2018-05-24T04:00:21.189Z,20.5
2018-05-24T04:01:21.190Z,20.5
2018-05-24T04:02:20.952Z,20.51
2018-05-24T04:03:20.976Z,20.52
2018-05-24T04:04:20.734Z,20.44
2018-05-24T04:05:21.282Z,20.52
2018-05-24T04:06:21.299Z,20.58
2018-05-24T04:07:21.420Z,20.5
2018-05-24T04:08:21.087Z,20.56
2018-05-24T04:09:21.378Z,20.51
2018-05-24T04:10:21.160Z,20.52
2018-05-24T04:11:21.436Z,20.43
2018-05-24T04:12:21.500Z,20.56
2018-05-24T04:13:21.500Z,20.51
2018-05-24T04:14:21.496Z,20.41
2018-05-24T04:15:21.518Z,20.52
2018-05-24T04:16:21.548Z,20.5
2018-05-24T04:17:21.330Z,20.56
2018-05-24T04:18:21.305Z,20.43
2018-05-24T04:19:21.616Z,20.44
2018-05-24T04:20:21.620Z,20.55
2018-05-24T04:21:21.637Z,20.52
2018-05-24T04:22:21.695Z,20.51
2018-05-24T04:23:21.936Z,20.51
2018-05-24T04:24:21.719Z,20.48
2018-05-24T04:25:21.461Z,20.55
2018-05-24T04:26:21.775Z,20.55
2018-05-24T04:27:21.514Z,20.58
2018-05-24T04:28:21.791Z,20.62
2018-05-24T04:29:21.823Z,20.56
2018-05-24T04:30:21.604Z,20.48
2018-05-24T04:31:21.875Z,20.55
2018-05-24T04:32:21.888Z,20.55
2018-05-24T04:33:21.916Z,20.56
2018-05-24T04:34:21.941Z,20.55
2018-05-24T04:35:21.973Z,20.59
2018-05-24T04:36:22.007Z,20.5
2018-05-24T04:37:22.028Z,20.56
2018-05-24T04:38:22.026Z,20.58
2018-05-24T04:39:22.063Z,20.58
2018-05-24T04:40:22.089Z,20.47
2018-05-24T04:41:22.099Z,20.62
2018-05-24T04:42:22.133Z,20.56
2018-05-24T04:43:21.893Z,20.55
2018-05-24T04:44:22.176Z,20.58
2018-05-24T04:45:22.219Z,20.58
2018-05-24T04:46:22.218Z,20.59
2018-05-24T04:47:22.248Z,20.55
2018-05-24T04:48:22.267Z,20.62
2018-05-24T04:49:22.016Z,20.5
2018-05-24T04:50:22.325Z,20.62
2018-05-24T04:51:22.340Z,20.58
2018-05-24T04:52:22.490Z,20.63
2018-05-24T04:53:22.370Z,20.58
2018-05-24T04:54:22.136Z,20.66
2018-05-24T04:55:22.435Z,20.6
2018-05-24T04:56:22.443Z,20.63
2018-05-24T04:57:22.184Z,20.6
2018-05-24T04:58:22.483Z,20.58
2018-05-24T04:59:22.521Z,20.62
2018-05-24T05:00:22.521Z,20.63
2018-05-24T05:01:22.291Z,20.59
2018-05-24T05:02:22.619Z,20.65
2018-05-24T05:03:22.610Z,20.69
2018-05-24T05:04:22.637Z,20.62
2018-05-24T05:05:22.368Z,20.63
2018-05-24T05:06:22.689Z,20.72
2018-05-24T05:07:22.702Z,20.75
2018-05-24T05:08:22.459Z,20.72
2018-05-24T05:09:22.524Z,20.72
2018-05-24T05:10:22.490Z,20.75
2018-05-24T05:11:22.788Z,20.78
2018-05-24T05:12:22.274Z,20.8
2018-05-24T05:13:22.929Z,20.85
2018-05-24T05:14:22.831Z,20.77
2018-05-24T05:15:22.577Z,20.75
2018-05-24T05:16:22.897Z,20.93
2018-05-24T05:17:22.929Z,20.9
2018-05-24T05:18:22.940Z,20.88
2018-05-24T05:19:22.718Z,20.96
2018-05-24T05:20:22.996Z,20.87
2018-05-24T05:21:23.017Z,20.92
2018-05-24T05:22:22.503Z,20.93
2018-05-24T05:23:23.240Z,20.93
2018-05-24T05:24:23.068Z,20.99
2018-05-24T05:25:23.139Z,20.96
2018-05-24T05:26:23.122Z,20.95
2018-05-24T05:27:23.140Z,20.93
2018-05-24T05:28:23.167Z,20.88
2018-05-24T05:29:22.910Z,20.96
2018-05-24T05:30:23.219Z,20.92
2018-05-24T05:31:23.252Z,20.92
2018-05-24T05:32:23.251Z,20.92
2018-05-24T05:33:23.269Z,20.93
2018-05-24T05:34:23.293Z,20.9
2018-05-24T05:35:23.301Z,20.88
2018-05-24T05:36:23.348Z,20.92
2018-05-24T05:37:23.363Z,20.99
2018-05-24T05:38:23.662Z,20.97
2018-05-24T05:39:23.152Z,20.97
2018-05-24T05:40:23.169Z,21.02
2018-05-24T05:41:23.482Z,20.97
2018-05-24T05:42:23.201Z,21.06
2018-05-24T05:43:23.246Z,21
2018-05-24T05:44:23.246Z,20.99
2018-05-24T05:45:23.565Z,20.97
2018-05-24T05:46:23.298Z,21.02
2018-05-24T05:47:23.328Z,20.97
2018-05-24T05:48:23.351Z,21.05
2018-05-24T05:49:23.643Z,21.12
2018-05-24T05:50:23.372Z,21.06
2018-05-24T05:51:23.417Z,21.06
2018-05-24T05:52:23.695Z,21.03
2018-05-24T05:53:23.470Z,21.06
2018-05-24T05:54:23.215Z,21.12
2018-05-24T05:55:23.490Z,21.09
2018-05-24T05:56:23.775Z,21.09
2018-05-24T05:57:23.818Z,21.12
2018-05-24T05:58:23.840Z,21.14
2018-05-24T05:59:23.875Z,21.21
2018-05-24T06:00:23.886Z,21.17
2018-05-24T06:01:23.626Z,21.18
2018-05-24T06:02:23.967Z,21.18
2018-05-24T06:03:23.691Z,21.25
2018-05-24T06:04:23.703Z,21.22
2018-05-24T06:05:23.993Z,21.22
2018-05-24T06:06:24.042Z,21.25
2018-05-24T06:07:24.057Z,21.3
2018-05-24T06:08:24.078Z,21.32
2018-05-24T06:09:24.095Z,21.32
2018-05-24T06:10:24.125Z,21.33
2018-05-24T06:11:24.158Z,21.37
2018-05-24T06:12:23.622Z,21.33
2018-05-24T06:13:23.679Z,21.36
2018-05-24T06:14:24.204Z,21.35
2018-05-24T06:15:24.363Z,21.36
2018-05-24T06:16:24.252Z,21.35
2018-05-24T06:17:24.273Z,21.33
2018-05-24T06:18:23.752Z,21.4
2018-05-24T06:19:24.307Z,21.42
2018-05-24T06:20:23.804Z,21.36
2018-05-24T06:21:24.365Z,21.37
2018-05-24T06:22:24.389Z,21.37
2018-05-24T06:23:24.188Z,21.35
2018-05-24T06:24:24.258Z,21.36
2018-05-24T06:25:24.198Z,21.39
2018-05-24T06:26:24.484Z,21.39
2018-05-24T06:27:24.500Z,21.4
2018-05-24T06:28:24.631Z,21.43
2018-05-24T06:29:24.269Z,21.42
2018-05-24T06:30:24.579Z,21.36
2018-05-24T06:31:24.332Z,21.35
2018-05-24T06:32:24.613Z,21.4
2018-05-24T06:33:24.645Z,21.37
2018-05-24T06:34:24.379Z,21.37
2018-05-24T06:35:24.703Z,21.43
2018-05-24T06:36:24.712Z,21.35
2018-05-24T06:37:24.449Z,21.37
2018-05-24T06:38:24.481Z,21.4
2018-05-24T06:39:24.861Z,21.43
2018-05-24T06:40:24.849Z,21.33
2018-05-24T06:41:24.826Z,21.42
2018-05-24T06:42:24.868Z,21.4
2018-05-24T06:43:24.925Z,21.4
2018-05-24T06:44:24.927Z,21.39
2018-05-24T06:45:24.641Z,21.37
2018-05-24T06:46:25.125Z,21.4
2018-05-24T06:47:24.981Z,21.35
2018-05-24T06:48:25.010Z,21.35
2018-05-24T06:49:24.721Z,21.43
2018-05-24T06:50:25.016Z,21.4
2018-05-24T06:51:25.044Z,21.39
2018-05-24T06:52:25.050Z,21.42
2018-05-24T06:53:25.088Z,21.45
2018-05-24T06:54:24.855Z,21.42
2018-05-24T06:55:25.187Z,21.5
2018-05-24T06:56:24.907Z,21.52
2018-05-24T06:57:25.208Z,21.46
2018-05-24T06:58:25.208Z,21.46
2018-05-24T06:59:25.222Z,21.52
2018-05-24T07:00:25.260Z,21.51
2018-05-24T07:01:25.275Z,21.5
2018-05-24T07:02:25.319Z,21.51
2018-05-24T07:03:25.052Z,21.55
2018-05-24T07:04:25.075Z,21.46
2018-05-24T07:05:25.094Z,21.54
2018-05-24T07:06:25.112Z,21.6
2018-05-24T07:07:25.427Z,21.52
2018-05-24T07:08:25.475Z,21.55
2018-05-24T07:09:25.479Z,21.58
2018-05-24T07:10:25.215Z,21.58
2018-05-24T07:11:25.509Z,21.62
2018-05-24T07:12:25.262Z,21.66
2018-05-24T07:13:25.555Z,21.67
2018-05-24T07:14:25.302Z,21.66
2018-05-24T07:15:25.622Z,21.72
2018-05-24T07:16:25.638Z,21.67
2018-05-24T07:17:25.667Z,21.8
2018-05-24T07:18:25.400Z,21.8
2018-05-24T07:19:25.708Z,21.77
2018-05-24T07:20:25.730Z,21.8
2018-05-24T07:21:25.738Z,21.82
2018-05-24T07:22:25.776Z,21.82
2018-05-24T07:23:25.787Z,21.8
2018-05-24T07:24:25.550Z,21.85
2018-05-24T07:25:25.840Z,21.89
2018-05-24T07:26:25.863Z,21.96
2018-05-24T07:27:25.883Z,21.91
2018-05-24T07:28:25.925Z,21.98
2018-05-24T07:29:25.914Z,21.96
2018-05-24T07:30:25.944Z,22.02
2018-05-24T07:31:25.431Z,22.04
2018-05-24T07:32:26.005Z,22.06
2018-05-24T07:33:25.739Z,21.98
2018-05-24T07:34:26.050Z,21.99
2018-05-24T07:35:25.780Z,22
2018-05-24T07:36:26.108Z,21.96
2018-05-24T07:37:25.556Z,22
2018-05-24T07:38:26.147Z,22.04
2018-05-24T07:39:26.153Z,21.99
2018-05-24T07:40:26.181Z,21.99
2018-05-24T07:41:26.222Z,22.04
2018-05-24T07:42:26.211Z,22
2018-05-24T07:43:26.258Z,22
2018-05-24T07:44:26.268Z,21.99
2018-05-24T07:45:26.270Z,22
2018-05-24T07:46:26.060Z,22.08
2018-05-24T07:47:26.062Z,22.06
2018-05-24T07:48:25.827Z,22.13
2018-05-24T07:49:26.428Z,22.06
2018-05-24T07:50:26.202Z,22.11
2018-05-24T07:51:26.439Z,22.13
2018-05-24T07:52:26.462Z,22.11
2018-05-24T07:53:26.489Z,22.17
2018-05-24T07:54:26.543Z,22.22
2018-05-24T07:55:26.276Z,22.29
2018-05-24T07:56:26.548Z,22.23
2018-05-24T07:57:26.583Z,22.2
2018-05-24T07:58:26.616Z,22.28
2018-05-24T07:59:26.340Z,22.32
2018-05-24T08:00:26.395Z,22.33
2018-05-24T08:01:26.394Z,22.35
2018-05-24T08:02:26.429Z,22.44
2018-05-24T08:03:26.733Z,22.41
2018-05-24T08:04:26.474Z,22.51
2018-05-24T08:05:26.778Z,22.5
2018-05-24T08:06:26.777Z,22.5
2018-05-24T08:07:26.814Z,22.5
2018-05-24T08:08:26.839Z,22.5
2018-05-24T08:09:26.866Z,22.6
2018-05-24T08:10:26.631Z,22.62
2018-05-24T08:11:26.354Z,22.65
2018-05-24T08:12:26.659Z,22.69
2018-05-24T08:13:26.942Z,22.78
2018-05-24T08:14:26.753Z,22.78
2018-05-24T08:15:26.990Z,22.84
2018-05-24T08:16:27.018Z,22.85
2018-05-24T08:17:26.767Z,22.94
2018-05-24T08:18:27.069Z,22.96
2018-05-24T08:19:27.106Z,22.98
2018-05-24T08:20:27.115Z,23.03
2018-05-24T08:21:27.160Z,23.06
2018-05-24T08:22:27.422Z,23.05
2018-05-24T08:23:27.197Z,23.2
2018-05-24T08:24:27.209Z,23.25
2018-05-24T08:25:26.945Z,23.28
2018-05-24T08:26:27.274Z,23.41
2018-05-24T08:27:27.023Z,23.34
2018-05-24T08:28:27.046Z,23.37
2018-05-24T08:29:27.345Z,23.5
2018-05-24T08:30:27.365Z,23.59
2018-05-24T08:31:27.117Z,23.56
2018-05-24T08:32:27.144Z,23.68
2018-05-24T08:33:27.443Z,23.69
2018-05-24T08:34:27.227Z,23.68
2018-05-24T08:35:27.473Z,23.71
2018-05-24T08:36:27.477Z,23.84
2018-05-24T08:37:27.522Z,23.73
2018-05-24T08:38:27.548Z,23.81
2018-05-24T08:39:27.361Z,23.88
2018-05-24T08:40:27.046Z,23.92
2018-05-24T08:41:27.641Z,23.91
2018-05-24T08:42:27.390Z,24.01
2018-05-24T08:43:27.665Z,24.02
2018-05-24T08:44:27.745Z,24.03
2018-05-24T08:45:27.506Z,24.11
2018-05-24T08:46:27.785Z,24.21
2018-05-24T08:47:28.017Z,24.21
2018-05-24T08:48:27.808Z,24.24
2018-05-24T08:49:27.839Z,24.35
2018-05-24T08:50:27.831Z,24.4
2018-05-24T08:51:27.614Z,24.4
2018-05-24T08:52:27.887Z,24.4
2018-05-24T08:53:27.816Z,24.55
2018-05-24T08:54:27.998Z,24.57
2018-05-24T08:55:27.685Z,24.55
2018-05-24T08:56:27.729Z,24.68
2018-05-24T08:57:28.015Z,24.73
2018-05-24T08:58:27.766Z,24.84
2018-05-24T08:59:27.785Z,24.76
2018-05-24T09:00:28.087Z,24.8
2018-05-24T09:01:28.686Z,24.86
2018-05-24T09:02:28.133Z,25.01
2018-05-24T09:03:27.870Z,24.85
2018-05-24T09:04:28.177Z,24.95
2018-05-24T09:05:28.214Z,24.95
2018-05-24T09:06:27.945Z,25.01
2018-05-24T09:07:28.257Z,25.06
2018-05-24T09:08:28.011Z,25.08
2018-05-24T09:09:28.367Z,25.16
2018-05-24T09:10:28.060Z,25.17
2018-05-24T09:11:28.080Z,25.1
2018-05-24T09:12:28.115Z,25.18
2018-05-24T09:13:28.418Z,25.26
2018-05-24T09:14:27.877Z,25.21
2018-05-24T09:15:28.179Z,25.23
2018-05-24T09:16:28.192Z,25.23
2018-05-24T09:17:28.248Z,25.25
2018-05-24T09:18:27.981Z,25.31
2018-05-24T09:19:28.288Z,25.35
2018-05-24T09:20:28.555Z,25.35
2018-05-24T09:21:28.317Z,25.32
2018-05-24T09:22:28.627Z,25.32
2018-05-24T09:23:28.097Z,25.32
2018-05-24T09:24:28.668Z,25.33
2018-05-24T09:25:28.682Z,25.41
2018-05-24T09:26:28.245Z,25.47
2018-05-24T09:27:28.757Z,25.41
2018-05-24T09:28:28.860Z,25.44
2018-05-24T09:29:28.723Z,25.59
2018-05-24T09:30:28.557Z,25.43
2018-05-24T09:31:28.591Z,25.47
2018-05-24T09:32:28.343Z,25.54
2018-05-24T09:33:28.364Z,25.58
2018-05-24T09:34:28.943Z,25.51
2018-05-24T09:35:28.678Z,25.55
2018-05-24T09:36:28.993Z,25.54
2018-05-24T09:37:28.739Z,25.6
2018-05-24T09:38:28.749Z,25.68
2018-05-24T09:39:28.786Z,25.59
2018-05-24T09:40:28.542Z,25.65
2018-05-24T09:41:29.128Z,25.7
2018-05-24T09:42:29.154Z,25.65
2018-05-24T09:43:29.143Z,25.66
2018-05-24T09:44:28.912Z,25.72
2018-05-24T09:45:29.216Z,25.73
2018-05-24T09:46:29.235Z,25.66
2018-05-24T09:47:28.992Z,25.66
2018-05-24T09:48:29.274Z,25.66
2018-05-24T09:49:29.030Z,25.72
2018-05-24T09:50:29.065Z,25.68
2018-05-24T09:51:29.354Z,25.68
2018-05-24T09:52:29.398Z,25.66
2018-05-24T09:53:29.408Z,25.7
2018-05-24T09:54:29.431Z,25.69
2018-05-24T09:55:28.931Z,25.7
2018-05-24T09:56:29.479Z,25.68
2018-05-24T09:57:29.507Z,25.66
2018-05-24T09:58:29.276Z,25.68
2018-05-24T09:59:29.024Z,25.73
2018-05-24T10:00:29.308Z,25.68
2018-05-24T10:01:29.350Z,25.72
2018-05-24T10:02:29.395Z,25.69
2018-05-24T10:03:29.673Z,25.68
2018-05-24T10:04:29.158Z,25.68
2018-05-24T10:05:29.723Z,25.7
2018-05-24T10:06:29.749Z,25.68
2018-05-24T10:07:29.499Z,25.66
2018-05-24T10:08:29.800Z,25.69
2018-05-24T10:09:29.828Z,25.73
2018-05-24T10:10:29.636Z,25.75
2018-05-24T10:11:29.604Z,25.75
2018-05-24T10:12:29.885Z,25.73
2018-05-24T10:13:29.927Z,25.75
2018-05-24T10:14:29.432Z,25.84
2018-05-24T10:15:29.979Z,25.84
2018-05-24T10:16:30.386Z,25.81
2018-05-24T10:17:29.740Z,25.84
2018-05-24T10:18:30.042Z,25.91
2018-05-24T10:19:30.101Z,25.95
2018-05-24T10:20:29.842Z,25.95
2018-05-24T10:21:30.116Z,25.98
2018-05-24T10:22:30.177Z,25.96
2018-05-24T10:23:30.341Z,25.96
2018-05-24T10:24:29.950Z,25.99
2018-05-24T10:25:30.240Z,25.98
2018-05-24T10:26:30.266Z,26.05
2018-05-24T10:27:30.293Z,26.09
2018-05-24T10:28:30.037Z,26.07
2018-05-24T10:29:30.652Z,26.18
2018-05-24T10:30:30.370Z,26.09
2018-05-24T10:31:30.111Z,26.06
2018-05-24T10:32:30.409Z,26.15
2018-05-24T10:33:30.440Z,26.13
2018-05-24T10:34:30.473Z,26.07
2018-05-24T10:35:30.213Z,26.13
2018-05-24T10:36:30.255Z,26.1
2018-05-24T10:37:30.555Z,26.13
2018-05-24T10:38:30.296Z,26.06
2018-05-24T10:39:30.499Z,26.1
2018-05-24T10:40:30.348Z,26.13
2018-05-24T10:41:30.369Z,26.07
2018-05-24T10:42:30.676Z,26.13
2018-05-24T10:43:30.689Z,26.07
2018-05-24T10:44:30.761Z,26.07
2018-05-24T10:45:30.740Z,26.03
2018-05-24T10:46:30.523Z,26.07
2018-05-24T10:47:30.816Z,26.06
2018-05-24T10:48:30.840Z,26.06
2018-05-24T10:49:30.884Z,26.07
2018-05-24T10:50:30.896Z,26.02
2018-05-24T10:51:30.937Z,26.07
2018-05-24T10:52:30.929Z,25.93
2018-05-24T10:53:30.710Z,25.98
2018-05-24T10:54:30.986Z,25.99
2018-05-24T10:55:31.015Z,25.96
2018-05-24T10:56:31.070Z,25.98
2018-05-24T10:57:31.085Z,25.96
2018-05-24T10:58:31.098Z,25.95
2018-05-24T10:59:30.677Z,26
2018-05-24T11:00:31.208Z,25.9
2018-05-24T11:01:30.918Z,25.88
2018-05-24T11:02:30.948Z,25.91
2018-05-24T11:03:31.441Z,25.91
2018-05-24T11:04:30.994Z,25.95
2018-05-24T11:05:31.310Z,25.9
2018-05-24T11:06:31.212Z,25.83
2018-05-24T11:07:31.317Z,25.85
2018-05-24T11:08:31.384Z,25.9
2018-05-24T11:09:31.370Z,25.87
2018-05-24T11:10:31.419Z,25.87
2018-05-24T11:11:31.200Z,25.87
2018-05-24T11:12:31.211Z,25.83
2018-05-24T11:13:31.504Z,25.84
2018-05-24T11:14:31.272Z,25.83
2018-05-24T11:15:31.543Z,25.87
2018-05-24T11:16:31.581Z,25.81
2018-05-24T11:17:31.591Z,25.83
2018-05-24T11:18:31.361Z,25.9
2018-05-24T11:19:31.398Z,25.88
2018-05-24T11:20:31.722Z,25.84
2018-05-24T11:21:31.715Z,25.9
2018-05-24T11:22:31.443Z,25.87
2018-05-24T11:23:31.491Z,25.93
2018-05-24T11:24:31.844Z,25.83
2018-05-24T11:25:31.304Z,25.88
2018-05-24T11:26:31.561Z,25.88
2018-05-24T11:27:31.593Z,25.91
2018-05-24T11:28:31.881Z,25.96
2018-05-24T11:29:31.897Z,25.91
2018-05-24T11:30:31.933Z,25.85
2018-05-24T11:31:31.954Z,25.9
2018-05-24T11:32:31.707Z,25.95
2018-05-24T11:33:32.018Z,25.91
2018-05-24T11:34:32.041Z,25.95
2018-05-24T11:35:32.072Z,25.96
2018-05-24T11:36:31.817Z,25.96
2018-05-24T11:37:32.112Z,25.88
2018-05-24T11:38:32.138Z,25.95
2018-05-24T11:39:31.895Z,25.93
2018-05-24T11:40:32.259Z,25.98
2018-05-24T11:41:32.233Z,25.99
2018-05-24T11:42:32.239Z,25.91
2018-05-24T11:43:32.789Z,25.98
2018-05-24T11:44:32.288Z,25.99
2018-05-24T11:45:32.328Z,25.99
2018-05-24T11:46:32.371Z,25.95
2018-05-24T11:47:32.102Z,25.93
2018-05-24T11:48:32.123Z,25.98
2018-05-24T11:49:32.161Z,26.02
2018-05-24T11:50:32.481Z,26.07
2018-05-24T11:51:32.474Z,26.07
2018-05-24T11:52:32.238Z,26.09
2018-05-24T11:53:32.538Z,26.18
2018-05-24T11:54:32.293Z,26.1
2018-05-24T11:55:32.574Z,26.16
2018-05-24T11:56:32.331Z,26.18
2018-05-24T11:57:32.392Z,26.07
2018-05-24T11:58:32.667Z,26.1
2018-05-24T11:59:32.432Z,26.07
2018-05-24T12:00:32.449Z,26.07
2018-05-24T12:01:32.752Z,26.13
2018-05-24T12:02:32.768Z,26.16
2018-05-24T12:03:32.783Z,26.07
2018-05-24T12:04:32.562Z,26.1
2018-05-24T12:05:32.858Z,26.1
2018-05-24T12:06:32.607Z,26.13
2018-05-24T12:07:32.639Z,26.26
2018-05-24T12:08:32.656Z,26.15
2018-05-24T12:09:32.967Z,26.26
2018-05-24T12:10:32.992Z,26.15
2018-05-24T12:11:33.008Z,26.19
2018-05-24T12:12:33.051Z,26.19
2018-05-24T12:13:33.058Z,26.23
2018-05-24T12:14:32.824Z,26.31
2018-05-24T12:15:33.123Z,26.25
2018-05-24T12:16:33.139Z,26.28
2018-05-24T12:17:32.901Z,26.29
2018-05-24T12:18:32.937Z,26.28
2018-05-24T12:19:33.222Z,26.26
2018-05-24T12:20:33.285Z,26.38
2018-05-24T12:21:33.270Z,26.41
2018-05-24T12:22:33.301Z,26.43
2018-05-24T12:23:33.341Z,26.47
2018-05-24T12:24:33.344Z,26.47
2018-05-24T12:25:33.391Z,26.48
2018-05-24T12:26:33.144Z,26.44
2018-05-24T12:27:33.162Z,26.52
2018-05-24T12:28:32.933Z,26.52
2018-05-24T12:29:33.207Z,26.56
2018-05-24T12:30:33.515Z,26.53
2018-05-24T12:31:33.518Z,26.51
2018-05-24T12:32:33.566Z,26.51
2018-05-24T12:33:33.318Z,26.56
2018-05-24T12:34:33.355Z,26.52
2018-05-24T12:35:33.616Z,26.51
2018-05-24T12:36:33.785Z,26.6
2018-05-24T12:37:33.712Z,26.62
2018-05-24T12:38:33.731Z,26.65
2018-05-24T12:39:33.479Z,26.65
2018-05-24T12:40:33.514Z,26.56
2018-05-24T12:41:33.997Z,26.74
2018-05-24T12:42:33.581Z,26.65
2018-05-24T12:43:33.575Z,26.62
2018-05-24T12:44:33.610Z,26.66
2018-05-24T12:45:33.640Z,26.74
2018-05-24T12:46:33.683Z,26.73
2018-05-24T12:47:33.704Z,26.73
2018-05-24T12:48:33.718Z,26.78
2018-05-24T12:49:33.748Z,26.84
2018-05-24T12:50:33.501Z,26.85
2018-05-24T12:51:34.083Z,26.88
2018-05-24T12:52:34.110Z,26.9
2018-05-24T12:53:33.840Z,26.95
2018-05-24T12:54:34.142Z,26.9
2018-05-24T12:55:33.899Z,26.93
2018-05-24T12:56:34.213Z,26.89